sensor_id;sensor_type;location;lat;lon;timestamp;P1;durP1;ratioP1;P2;durP2;ratioP2
26965;SDS011;14522;52.068;4.414;2023-09-07T00:00:03;10.73;;;6.65;;
26965;SDS011;14522;52.068;4.414;2023-09-07T00:02:32;9.43;;;7.30;;
26965;SDS011;14522;52.068;4.414;2023-09-07T00:05:05;7.50;;;6.63;;
26965;SDS011;14522;52.068;4.414;2023-09-07T00:07:33;7.07;;;5.85;;
26965;SDS011;14522;52.068;4.414;2023-09-07T00:10:00;7.78;;;5.07;;
26965;SDS011;14522;52.068;4.414;2023-09-07T00:12:27;8.00;;;6.95;;
26965;SDS011;14522;52.068;4.414;2023-09-07T00:14:54;8.73;;;6.45;;
26965;SDS011;14522;52.068;4.414;2023-09-07T00:17:21;9.55;;;6.03;;
26965;SDS011;14522;52.068;4.414;2023-09-07T00:19:47;8.35;;;5.25;;
26965;SDS011;14522;52.068;4.414;2023-09-07T00:22:18;9.10;;;6.72;;
26965;SDS011;14522;52.068;4.414;2023-09-07T00:24:45;7.50;;;4.57;;
26965;SDS011;14522;52.068;4.414;2023-09-07T00:27:11;6.28;;;4.97;;
26965;SDS011;14522;52.068;4.414;2023-09-07T00:29:38;17.13;;;7.00;;
26965;SDS011;14522;52.068;4.414;2023-09-07T00:32:05;7.28;;;5.15;;
26965;SDS011;14522;52.068;4.414;2023-09-07T00:34:31;9.05;;;5.82;;
26965;SDS011;14522;52.068;4.414;2023-09-07T00:36:58;8.77;;;5.63;;
26965;SDS011;14522;52.068;4.414;2023-09-07T00:39:24;6.82;;;5.60;;
26965;SDS011;14522;52.068;4.414;2023-09-07T00:41:51;7.43;;;5.20;;
26965;SDS011;14522;52.068;4.414;2023-09-07T00:44:17;8.00;;;5.60;;
26965;SDS011;14522;52.068;4.414;2023-09-07T00:46:43;8.32;;;6.00;;
26965;SDS011;14522;52.068;4.414;2023-09-07T00:49:11;7.55;;;5.57;;
26965;SDS011;14522;52.068;4.414;2023-09-07T00:51:38;12.70;;;7.18;;
26965;SDS011;14522;52.068;4.414;2023-09-07T00:54:04;6.15;;;4.57;;
26965;SDS011;14522;52.068;4.414;2023-09-07T00:56:31;6.50;;;4.72;;
26965;SDS011;14522;52.068;4.414;2023-09-07T00:58:57;8.25;;;5.72;;
26965;SDS011;14522;52.068;4.414;2023-09-07T01:01:26;8.45;;;6.10;;
26965;SDS011;14522;52.068;4.414;2023-09-07T01:03:53;8.40;;;5.63;;
26965;SDS011;14522;52.068;4.414;2023-09-07T01:06:24;8.52;;;5.78;;
26965;SDS011;14522;52.068;4.414;2023-09-07T01:08:54;8.90;;;6.22;;
26965;SDS011;14522;52.068;4.414;2023-09-07T01:11:22;8.63;;;6.45;;
26965;SDS011;14522;52.068;4.414;2023-09-07T01:13:50;7.85;;;6.30;;
26965;SDS011;14522;52.068;4.414;2023-09-07T01:16:18;7.68;;;6.03;;
26965;SDS011;14522;52.068;4.414;2023-09-07T01:18:46;7.75;;;5.55;;
26965;SDS011;14522;52.068;4.414;2023-09-07T01:21:13;5.95;;;4.97;;
26965;SDS011;14522;52.068;4.414;2023-09-07T01:23:40;7.53;;;6.45;;
26965;SDS011;14522;52.068;4.414;2023-09-07T01:26:07;9.30;;;5.93;;
26965;SDS011;14522;52.068;4.414;2023-09-07T01:28:35;8.18;;;5.38;;
26965;SDS011;14522;52.068;4.414;2023-09-07T01:31:01;9.00;;;6.68;;
26965;SDS011;14522;52.068;4.414;2023-09-07T01:33:28;6.60;;;4.85;;
26965;SDS011;14522;52.068;4.414;2023-09-07T01:35:54;10.20;;;6.50;;
26965;SDS011;14522;52.068;4.414;2023-09-07T01:38:21;9.07;;;6.10;;
26965;SDS011;14522;52.068;4.414;2023-09-07T01:40:47;7.72;;;5.88;;
26965;SDS011;14522;52.068;4.414;2023-09-07T01:43:14;9.00;;;6.47;;
26965;SDS011;14522;52.068;4.414;2023-09-07T01:45:40;4.28;;;3.55;;
26965;SDS011;14522;52.068;4.414;2023-09-07T01:48:10;8.10;;;4.97;;
26965;SDS011;14522;52.068;4.414;2023-09-07T01:50:37;8.02;;;5.75;;
26965;SDS011;14522;52.068;4.414;2023-09-07T01:53:04;11.55;;;5.88;;
26965;SDS011;14522;52.068;4.414;2023-09-07T01:55:31;12.95;;;6.15;;
26965;SDS011;14522;52.068;4.414;2023-09-07T01:57:57;11.25;;;7.38;;
26965;SDS011;14522;52.068;4.414;2023-09-07T02:00:24;8.98;;;5.90;;
26965;SDS011;14522;52.068;4.414;2023-09-07T02:02:50;9.13;;;5.85;;
26965;SDS011;14522;52.068;4.414;2023-09-07T02:05:17;10.88;;;6.72;;
26965;SDS011;14522;52.068;4.414;2023-09-07T02:07:44;10.05;;;7.07;;
26965;SDS011;14522;52.068;4.414;2023-09-07T02:10:10;7.68;;;5.15;;
26965;SDS011;14522;52.068;4.414;2023-09-07T02:12:37;9.90;;;7.25;;
26965;SDS011;14522;52.068;4.414;2023-09-07T02:15:04;8.25;;;6.13;;
26965;SDS011;14522;52.068;4.414;2023-09-07T02:17:30;6.70;;;5.10;;
26965;SDS011;14522;52.068;4.414;2023-09-07T02:19:57;11.55;;;7.18;;
26965;SDS011;14522;52.068;4.414;2023-09-07T02:22:23;11.80;;;7.93;;
26965;SDS011;14522;52.068;4.414;2023-09-07T02:24:50;8.45;;;6.40;;
26965;SDS011;14522;52.068;4.414;2023-09-07T02:27:16;9.90;;;5.57;;
26965;SDS011;14522;52.068;4.414;2023-09-07T02:29:42;7.90;;;5.20;;
26965;SDS011;14522;52.068;4.414;2023-09-07T02:32:09;9.93;;;7.15;;
26965;SDS011;14522;52.068;4.414;2023-09-07T02:34:35;7.65;;;4.78;;
26965;SDS011;14522;52.068;4.414;2023-09-07T02:37:05;9.95;;;6.30;;
26965;SDS011;14522;52.068;4.414;2023-09-07T02:39:31;6.13;;;4.75;;
26965;SDS011;14522;52.068;4.414;2023-09-07T02:41:58;10.00;;;6.40;;
26965;SDS011;14522;52.068;4.414;2023-09-07T02:44:24;6.47;;;5.32;;
26965;SDS011;14522;52.068;4.414;2023-09-07T02:46:50;8.75;;;6.70;;
26965;SDS011;14522;52.068;4.414;2023-09-07T02:49:17;10.80;;;7.07;;
26965;SDS011;14522;52.068;4.414;2023-09-07T02:51:43;9.80;;;6.38;;
26965;SDS011;14522;52.068;4.414;2023-09-07T02:54:11;11.85;;;6.30;;
26965;SDS011;14522;52.068;4.414;2023-09-07T02:56:37;9.98;;;5.95;;
26965;SDS011;14522;52.068;4.414;2023-09-07T02:59:03;7.07;;;5.50;;
26965;SDS011;14522;52.068;4.414;2023-09-07T03:01:31;8.10;;;5.85;;
26965;SDS011;14522;52.068;4.414;2023-09-07T03:03:58;7.60;;;4.70;;
26965;SDS011;14522;52.068;4.414;2023-09-07T03:06:24;4.85;;;3.38;;
26965;SDS011;14522;52.068;4.414;2023-09-07T03:08:51;5.07;;;4.45;;
26965;SDS011;14522;52.068;4.414;2023-09-07T03:11:18;6.90;;;5.68;;
26965;SDS011;14522;52.068;4.414;2023-09-07T03:13:44;7.60;;;5.40;;
26965;SDS011;14522;52.068;4.414;2023-09-07T03:16:11;7.88;;;5.85;;
26965;SDS011;14522;52.068;4.414;2023-09-07T03:18:38;10.45;;;6.43;;
26965;SDS011;14522;52.068;4.414;2023-09-07T03:21:04;5.80;;;5.15;;
26965;SDS011;14522;52.068;4.414;2023-09-07T03:23:31;10.13;;;6.95;;
26965;SDS011;14522;52.068;4.414;2023-09-07T03:25:58;3.88;;;2.70;;
26965;SDS011;14522;52.068;4.414;2023-09-07T03:28:25;10.43;;;6.30;;
26965;SDS011;14522;52.068;4.414;2023-09-07T03:30:52;3.90;;;2.65;;
26965;SDS011;14522;52.068;4.414;2023-09-07T03:33:19;6.50;;;3.95;;
26965;SDS011;14522;52.068;4.414;2023-09-07T03:35:45;5.47;;;4.32;;
26965;SDS011;14522;52.068;4.414;2023-09-07T03:38:12;4.95;;;3.47;;
26965;SDS011;14522;52.068;4.414;2023-09-07T03:40:39;9.38;;;5.88;;
26965;SDS011;14522;52.068;4.414;2023-09-07T03:43:06;9.77;;;5.78;;
26965;SDS011;14522;52.068;4.414;2023-09-07T03:45:32;5.88;;;4.30;;
26965;SDS011;14522;52.068;4.414;2023-09-07T03:47:59;6.88;;;5.55;;
26965;SDS011;14522;52.068;4.414;2023-09-07T03:50:25;7.05;;;3.92;;
26965;SDS011;14522;52.068;4.414;2023-09-07T03:52:52;5.78;;;4.47;;
26965;SDS011;14522;52.068;4.414;2023-09-07T03:55:18;6.40;;;3.53;;
26965;SDS011;14522;52.068;4.414;2023-09-07T03:57:48;6.82;;;5.22;;
26965;SDS011;14522;52.068;4.414;2023-09-07T04:00:14;8.25;;;5.68;;
26965;SDS011;14522;52.068;4.414;2023-09-07T04:02:41;8.95;;;6.63;;
26965;SDS011;14522;52.068;4.414;2023-09-07T04:05:08;6.78;;;5.82;;
26965;SDS011;14522;52.068;4.414;2023-09-07T04:07:37;6.35;;;3.80;;
26965;SDS011;14522;52.068;4.414;2023-09-07T04:10:04;7.18;;;5.00;;
26965;SDS011;14522;52.068;4.414;2023-09-07T04:12:31;10.23;;;5.20;;
26965;SDS011;14522;52.068;4.414;2023-09-07T04:15:02;6.70;;;4.82;;
26965;SDS011;14522;52.068;4.414;2023-09-07T04:17:29;6.90;;;4.82;;
26965;SDS011;14522;52.068;4.414;2023-09-07T04:19:56;7.30;;;3.80;;
26965;SDS011;14522;52.068;4.414;2023-09-07T04:22:22;7.07;;;6.00;;
26965;SDS011;14522;52.068;4.414;2023-09-07T04:24:49;7.45;;;6.43;;
26965;SDS011;14522;52.068;4.414;2023-09-07T04:27:16;3.97;;;3.58;;
26965;SDS011;14522;52.068;4.414;2023-09-07T04:29:42;6.57;;;4.30;;
26965;SDS011;14522;52.068;4.414;2023-09-07T04:32:09;5.45;;;3.17;;
26965;SDS011;14522;52.068;4.414;2023-09-07T04:34:35;2.90;;;2.25;;
26965;SDS011;14522;52.068;4.414;2023-09-07T04:37:01;3.53;;;1.77;;
26965;SDS011;14522;52.068;4.414;2023-09-07T04:39:28;6.22;;;4.13;;
26965;SDS011;14522;52.068;4.414;2023-09-07T04:41:54;4.90;;;4.00;;
26965;SDS011;14522;52.068;4.414;2023-09-07T04:44:21;6.78;;;6.07;;
26965;SDS011;14522;52.068;4.414;2023-09-07T04:46:47;5.57;;;3.78;;
26965;SDS011;14522;52.068;4.414;2023-09-07T04:49:13;5.30;;;3.90;;
26965;SDS011;14522;52.068;4.414;2023-09-07T04:51:40;5.75;;;3.22;;
26965;SDS011;14522;52.068;4.414;2023-09-07T04:54:06;3.88;;;3.42;;
26965;SDS011;14522;52.068;4.414;2023-09-07T04:56:33;9.98;;;6.75;;
26965;SDS011;14522;52.068;4.414;2023-09-07T04:58:59;5.53;;;3.60;;
26965;SDS011;14522;52.068;4.414;2023-09-07T05:01:25;4.45;;;3.30;;
26965;SDS011;14522;52.068;4.414;2023-09-07T05:03:52;2.20;;;2.00;;
26965;SDS011;14522;52.068;4.414;2023-09-07T05:06:20;3.67;;;2.38;;
26965;SDS011;14522;52.068;4.414;2023-09-07T05:08:49;4.60;;;2.92;;
26965;SDS011;14522;52.068;4.414;2023-09-07T05:11:15;3.65;;;2.05;;
26965;SDS011;14522;52.068;4.414;2023-09-07T05:13:42;3.78;;;2.28;;
26965;SDS011;14522;52.068;4.414;2023-09-07T05:16:08;2.97;;;2.25;;
26965;SDS011;14522;52.068;4.414;2023-09-07T05:18:35;6.18;;;4.10;;
26965;SDS011;14522;52.068;4.414;2023-09-07T05:21:10;6.07;;;4.07;;
26965;SDS011;14522;52.068;4.414;2023-09-07T05:23:37;3.50;;;2.42;;
26965;SDS011;14522;52.068;4.414;2023-09-07T05:26:03;2.65;;;1.73;;
26965;SDS011;14522;52.068;4.414;2023-09-07T05:28:29;9.30;;;4.47;;
26965;SDS011;14522;52.068;4.414;2023-09-07T05:30:56;3.10;;;1.83;;
26965;SDS011;14522;52.068;4.414;2023-09-07T05:33:23;5.68;;;3.45;;
26965;SDS011;14522;52.068;4.414;2023-09-07T05:35:49;4.75;;;3.38;;
26965;SDS011;14522;52.068;4.414;2023-09-07T05:38:16;3.92;;;3.10;;
26965;SDS011;14522;52.068;4.414;2023-09-07T05:40:43;6.68;;;3.92;;
26965;SDS011;14522;52.068;4.414;2023-09-07T05:43:10;13.65;;;5.88;;
26965;SDS011;14522;52.068;4.414;2023-09-07T05:45:38;5.93;;;4.45;;
26965;SDS011;14522;52.068;4.414;2023-09-07T05:48:05;4.65;;;3.60;;
26965;SDS011;14522;52.068;4.414;2023-09-07T05:50:36;5.88;;;4.60;;
26965;SDS011;14522;52.068;4.414;2023-09-07T05:53:03;3.65;;;2.83;;
26965;SDS011;14522;52.068;4.414;2023-09-07T05:55:29;5.97;;;3.75;;
26965;SDS011;14522;52.068;4.414;2023-09-07T05:57:56;3.25;;;2.75;;
26965;SDS011;14522;52.068;4.414;2023-09-07T06:00:23;5.65;;;3.80;;
26965;SDS011;14522;52.068;4.414;2023-09-07T06:02:50;7.35;;;5.18;;
26965;SDS011;14522;52.068;4.414;2023-09-07T06:05:17;9.38;;;6.28;;
26965;SDS011;14522;52.068;4.414;2023-09-07T06:07:43;3.97;;;3.13;;
26965;SDS011;14522;52.068;4.414;2023-09-07T06:10:10;4.07;;;2.72;;
26965;SDS011;14522;52.068;4.414;2023-09-07T06:12:37;8.82;;;5.13;;
26965;SDS011;14522;52.068;4.414;2023-09-07T06:15:04;4.53;;;3.30;;
26965;SDS011;14522;52.068;4.414;2023-09-07T06:17:31;3.92;;;2.80;;
26965;SDS011;14522;52.068;4.414;2023-09-07T06:19:57;10.63;;;6.40;;
26965;SDS011;14522;52.068;4.414;2023-09-07T06:22:24;5.50;;;3.95;;
26965;SDS011;14522;52.068;4.414;2023-09-07T06:24:50;2.55;;;2.08;;
26965;SDS011;14522;52.068;4.414;2023-09-07T06:27:17;8.63;;;5.38;;
26965;SDS011;14522;52.068;4.414;2023-09-07T06:29:43;9.32;;;7.35;;
26965;SDS011;14522;52.068;4.414;2023-09-07T06:32:09;8.00;;;4.80;;
26965;SDS011;14522;52.068;4.414;2023-09-07T06:34:36;6.60;;;4.50;;
26965;SDS011;14522;52.068;4.414;2023-09-07T06:37:02;11.18;;;5.85;;
26965;SDS011;14522;52.068;4.414;2023-09-07T06:39:29;7.22;;;5.45;;
26965;SDS011;14522;52.068;4.414;2023-09-07T06:41:55;7.90;;;5.70;;
26965;SDS011;14522;52.068;4.414;2023-09-07T06:44:22;8.88;;;6.75;;
26965;SDS011;14522;52.068;4.414;2023-09-07T06:46:48;7.70;;;6.43;;
26965;SDS011;14522;52.068;4.414;2023-09-07T06:49:15;6.30;;;4.90;;
26965;SDS011;14522;52.068;4.414;2023-09-07T06:51:42;7.07;;;5.40;;
26965;SDS011;14522;52.068;4.414;2023-09-07T06:54:08;10.18;;;6.60;;
26965;SDS011;14522;52.068;4.414;2023-09-07T06:56:35;7.25;;;5.43;;
26965;SDS011;14522;52.068;4.414;2023-09-07T06:59:01;6.85;;;4.60;;
26965;SDS011;14522;52.068;4.414;2023-09-07T07:01:28;14.13;;;8.98;;
26965;SDS011;14522;52.068;4.414;2023-09-07T07:03:54;7.68;;;5.55;;
26965;SDS011;14522;52.068;4.414;2023-09-07T07:06:21;10.60;;;8.13;;
26965;SDS011;14522;52.068;4.414;2023-09-07T07:08:47;9.20;;;7.07;;
26965;SDS011;14522;52.068;4.414;2023-09-07T07:11:14;7.45;;;4.80;;
26965;SDS011;14522;52.068;4.414;2023-09-07T07:13:40;13.57;;;7.28;;
26965;SDS011;14522;52.068;4.414;2023-09-07T07:16:06;8.90;;;6.25;;
26965;SDS011;14522;52.068;4.414;2023-09-07T07:18:33;10.40;;;6.88;;
26965;SDS011;14522;52.068;4.414;2023-09-07T07:20:59;12.70;;;8.82;;
26965;SDS011;14522;52.068;4.414;2023-09-07T07:23:26;7.13;;;4.30;;
26965;SDS011;14522;52.068;4.414;2023-09-07T07:25:52;12.02;;;9.05;;
26965;SDS011;14522;52.068;4.414;2023-09-07T07:28:19;12.70;;;8.73;;
26965;SDS011;14522;52.068;4.414;2023-09-07T07:30:45;11.85;;;7.57;;
26965;SDS011;14522;52.068;4.414;2023-09-07T07:33:13;11.38;;;7.75;;
26965;SDS011;14522;52.068;4.414;2023-09-07T07:35:40;6.32;;;3.83;;
26965;SDS011;14522;52.068;4.414;2023-09-07T07:38:06;15.20;;;7.80;;
26965;SDS011;14522;52.068;4.414;2023-09-07T07:40:34;14.63;;;8.20;;
26965;SDS011;14522;52.068;4.414;2023-09-07T07:43:00;10.43;;;7.25;;
26965;SDS011;14522;52.068;4.414;2023-09-07T07:45:27;8.70;;;6.50;;
26965;SDS011;14522;52.068;4.414;2023-09-07T07:47:53;15.30;;;7.85;;
26965;SDS011;14522;52.068;4.414;2023-09-07T07:50:20;12.73;;;8.32;;
26965;SDS011;14522;52.068;4.414;2023-09-07T07:52:46;11.23;;;7.75;;
26965;SDS011;14522;52.068;4.414;2023-09-07T07:55:13;15.98;;;8.15;;
26965;SDS011;14522;52.068;4.414;2023-09-07T07:57:39;6.97;;;4.38;;
26965;SDS011;14522;52.068;4.414;2023-09-07T08:00:05;14.45;;;7.60;;
26965;SDS011;14522;52.068;4.414;2023-09-07T08:02:33;10.40;;;6.25;;
26965;SDS011;14522;52.068;4.414;2023-09-07T08:04:59;10.20;;;6.57;;
26965;SDS011;14522;52.068;4.414;2023-09-07T08:07:26;8.77;;;4.88;;
26965;SDS011;14522;52.068;4.414;2023-09-07T08:09:53;10.00;;;6.68;;
26965;SDS011;14522;52.068;4.414;2023-09-07T08:12:20;11.07;;;5.78;;
26965;SDS011;14522;52.068;4.414;2023-09-07T08:14:47;11.40;;;4.93;;
26965;SDS011;14522;52.068;4.414;2023-09-07T08:17:13;12.15;;;5.75;;
26965;SDS011;14522;52.068;4.414;2023-09-07T08:19:40;10.05;;;5.70;;
26965;SDS011;14522;52.068;4.414;2023-09-07T08:22:06;9.55;;;5.03;;
26965;SDS011;14522;52.068;4.414;2023-09-07T08:24:33;10.00;;;5.00;;
26965;SDS011;14522;52.068;4.414;2023-09-07T08:26:59;7.97;;;5.32;;
26965;SDS011;14522;52.068;4.414;2023-09-07T08:29:26;8.77;;;5.07;;
26965;SDS011;14522;52.068;4.414;2023-09-07T08:31:53;8.65;;;5.57;;
26965;SDS011;14522;52.068;4.414;2023-09-07T08:34:24;10.77;;;5.38;;
26965;SDS011;14522;52.068;4.414;2023-09-07T08:36:50;12.13;;;5.70;;
26965;SDS011;14522;52.068;4.414;2023-09-07T08:39:16;9.52;;;5.50;;
26965;SDS011;14522;52.068;4.414;2023-09-07T08:41:43;9.38;;;5.13;;
26965;SDS011;14522;52.068;4.414;2023-09-07T08:44:26;9.00;;;5.53;;
26965;SDS011;14522;52.068;4.414;2023-09-07T08:46:53;9.20;;;5.10;;
26965;SDS011;14522;52.068;4.414;2023-09-07T08:49:20;8.80;;;5.43;;
26965;SDS011;14522;52.068;4.414;2023-09-07T08:51:46;9.95;;;5.35;;
26965;SDS011;14522;52.068;4.414;2023-09-07T08:54:12;8.40;;;5.00;;
26965;SDS011;14522;52.068;4.414;2023-09-07T08:56:39;7.43;;;4.32;;
26965;SDS011;14522;52.068;4.414;2023-09-07T08:59:05;6.88;;;3.92;;
26965;SDS011;14522;52.068;4.414;2023-09-07T09:01:32;5.95;;;4.38;;
26965;SDS011;14522;52.068;4.414;2023-09-07T09:03:59;6.15;;;4.72;;
26965;SDS011;14522;52.068;4.414;2023-09-07T09:06:26;12.52;;;4.60;;
26965;SDS011;14522;52.068;4.414;2023-09-07T09:08:56;7.22;;;4.45;;
26965;SDS011;14522;52.068;4.414;2023-09-07T09:11:23;5.50;;;4.05;;
26965;SDS011;14522;52.068;4.414;2023-09-07T09:13:50;7.57;;;4.05;;
26965;SDS011;14522;52.068;4.414;2023-09-07T09:16:17;4.95;;;2.90;;
26965;SDS011;14522;52.068;4.414;2023-09-07T09:18:55;6.38;;;4.10;;
26965;SDS011;14522;52.068;4.414;2023-09-07T09:21:23;7.40;;;4.25;;
26965;SDS011;14522;52.068;4.414;2023-09-07T09:23:50;6.75;;;3.80;;
26965;SDS011;14522;52.068;4.414;2023-09-07T09:26:17;7.65;;;4.15;;
26965;SDS011;14522;52.068;4.414;2023-09-07T09:28:43;7.97;;;4.45;;
26965;SDS011;14522;52.068;4.414;2023-09-07T09:31:13;11.55;;;5.15;;
26965;SDS011;14522;52.068;4.414;2023-09-07T09:33:40;10.63;;;4.35;;
26965;SDS011;14522;52.068;4.414;2023-09-07T09:36:07;6.50;;;3.50;;
26965;SDS011;14522;52.068;4.414;2023-09-07T09:38:34;7.72;;;4.80;;
26965;SDS011;14522;52.068;4.414;2023-09-07T09:41:01;5.85;;;3.80;;
26965;SDS011;14522;52.068;4.414;2023-09-07T09:43:29;6.53;;;2.97;;
26965;SDS011;14522;52.068;4.414;2023-09-07T09:45:55;5.68;;;3.53;;
26965;SDS011;14522;52.068;4.414;2023-09-07T09:48:22;5.82;;;4.10;;
26965;SDS011;14522;52.068;4.414;2023-09-07T09:50:49;7.88;;;3.17;;
26965;SDS011;14522;52.068;4.414;2023-09-07T09:53:17;4.20;;;3.10;;
26965;SDS011;14522;52.068;4.414;2023-09-07T09:55:50;7.25;;;3.15;;
26965;SDS011;14522;52.068;4.414;2023-09-07T09:58:18;4.82;;;3.30;;
26965;SDS011;14522;52.068;4.414;2023-09-07T10:00:45;7.35;;;3.17;;
26965;SDS011;14522;52.068;4.414;2023-09-07T10:03:24;6.75;;;2.95;;
26965;SDS011;14522;52.068;4.414;2023-09-07T10:05:53;6.47;;;3.88;;
26965;SDS011;14522;52.068;4.414;2023-09-07T10:08:20;7.18;;;3.58;;
26965;SDS011;14522;52.068;4.414;2023-09-07T10:10:47;7.72;;;4.70;;
26965;SDS011;14522;52.068;4.414;2023-09-07T10:13:14;8.40;;;3.80;;
26965;SDS011;14522;52.068;4.414;2023-09-07T10:15:40;7.65;;;3.55;;
26965;SDS011;14522;52.068;4.414;2023-09-07T10:20:57;8.40;;;3.75;;
26965;SDS011;14522;52.068;4.414;2023-09-07T10:23:22;4.63;;;3.53;;
26965;SDS011;14522;52.068;4.414;2023-09-07T10:25:50;11.43;;;4.53;;
26965;SDS011;14522;52.068;4.414;2023-09-07T10:28:24;8.13;;;4.05;;
26965;SDS011;14522;52.068;4.414;2023-09-07T10:35:53;6.57;;;3.75;;
26965;SDS011;14522;52.068;4.414;2023-09-07T10:38:19;6.13;;;3.85;;
26965;SDS011;14522;52.068;4.414;2023-09-07T10:40:47;5.32;;;3.45;;
26965;SDS011;14522;52.068;4.414;2023-09-07T10:43:14;5.90;;;3.53;;
26965;SDS011;14522;52.068;4.414;2023-09-07T10:45:43;7.63;;;4.05;;
26965;SDS011;14522;52.068;4.414;2023-09-07T10:48:10;11.93;;;4.40;;
26965;SDS011;14522;52.068;4.414;2023-09-07T10:50:44;7.25;;;3.00;;
26965;SDS011;14522;52.068;4.414;2023-09-07T10:53:12;8.48;;;3.13;;
26965;SDS011;14522;52.068;4.414;2023-09-07T10:55:39;6.78;;;2.42;;
26965;SDS011;14522;52.068;4.414;2023-09-07T10:58:06;11.00;;;3.38;;
26965;SDS011;14522;52.068;4.414;2023-09-07T11:00:32;13.05;;;3.45;;
26965;SDS011;14522;52.068;4.414;2023-09-07T11:02:59;8.57;;;3.28;;
26965;SDS011;14522;52.068;4.414;2023-09-07T11:05:32;8.48;;;3.35;;
26965;SDS011;14522;52.068;4.414;2023-09-07T11:08:01;7.13;;;3.47;;
26965;SDS011;14522;52.068;4.414;2023-09-07T11:10:27;6.10;;;3.40;;
26965;SDS011;14522;52.068;4.414;2023-09-07T11:12:54;6.57;;;2.95;;
26965;SDS011;14522;52.068;4.414;2023-09-07T11:15:21;4.82;;;2.70;;
26965;SDS011;14522;52.068;4.414;2023-09-07T11:17:48;8.70;;;3.25;;
26965;SDS011;14522;52.068;4.414;2023-09-07T11:20:16;6.15;;;3.10;;
26965;SDS011;14522;52.068;4.414;2023-09-07T11:22:42;5.57;;;2.20;;
26965;SDS011;14522;52.068;4.414;2023-09-07T11:25:35;3.92;;;2.60;;
26965;SDS011;14522;52.068;4.414;2023-09-07T11:28:05;3.83;;;2.47;;
26965;SDS011;14522;52.068;4.414;2023-09-07T11:30:33;6.00;;;2.63;;
26965;SDS011;14522;52.068;4.414;2023-09-07T11:33:00;5.72;;;2.90;;
26965;SDS011;14522;52.068;4.414;2023-09-07T11:35:27;5.18;;;2.80;;
26965;SDS011;14522;52.068;4.414;2023-09-07T11:37:53;3.30;;;2.20;;
26965;SDS011;14522;52.068;4.414;2023-09-07T11:40:20;3.95;;;2.70;;
26965;SDS011;14522;52.068;4.414;2023-09-07T11:42:46;3.75;;;2.50;;
26965;SDS011;14522;52.068;4.414;2023-09-07T11:45:13;6.28;;;2.55;;
26965;SDS011;14522;52.068;4.414;2023-09-07T11:47:39;5.28;;;2.88;;
26965;SDS011;14522;52.068;4.414;2023-09-07T11:50:06;4.38;;;2.20;;
26965;SDS011;14522;52.068;4.414;2023-09-07T11:52:33;5.85;;;2.50;;
26965;SDS011;14522;52.068;4.414;2023-09-07T11:55:00;5.22;;;2.67;;
26965;SDS011;14522;52.068;4.414;2023-09-07T11:57:29;4.05;;;2.42;;
26965;SDS011;14522;52.068;4.414;2023-09-07T11:59:56;4.57;;;2.35;;
26965;SDS011;14522;52.068;4.414;2023-09-07T12:02:24;10.05;;;2.75;;
26965;SDS011;14522;52.068;4.414;2023-09-07T12:04:51;10.88;;;2.40;;
26965;SDS011;14522;52.068;4.414;2023-09-07T12:07:17;3.00;;;1.85;;
26965;SDS011;14522;52.068;4.414;2023-09-07T12:09:44;4.72;;;2.20;;
26965;SDS011;14522;52.068;4.414;2023-09-07T12:12:10;3.83;;;2.35;;
26965;SDS011;14522;52.068;4.414;2023-09-07T12:14:37;6.00;;;2.40;;
26965;SDS011;14522;52.068;4.414;2023-09-07T12:17:03;6.15;;;2.85;;
26965;SDS011;14522;52.068;4.414;2023-09-07T12:19:30;5.00;;;2.58;;
26965;SDS011;14522;52.068;4.414;2023-09-07T12:21:57;5.97;;;2.40;;
26965;SDS011;14522;52.068;4.414;2023-09-07T12:24:23;5.32;;;2.95;;
26965;SDS011;14522;52.068;4.414;2023-09-07T12:26:50;3.75;;;2.55;;
26965;SDS011;14522;52.068;4.414;2023-09-07T12:29:16;6.53;;;2.40;;
26965;SDS011;14522;52.068;4.414;2023-09-07T12:31:43;5.15;;;2.33;;
26965;SDS011;14522;52.068;4.414;2023-09-07T12:34:09;3.95;;;2.40;;
26965;SDS011;14522;52.068;4.414;2023-09-07T12:36:36;5.70;;;2.60;;
26965;SDS011;14522;52.068;4.414;2023-09-07T12:39:02;4.65;;;2.38;;
26965;SDS011;14522;52.068;4.414;2023-09-07T12:41:31;4.45;;;2.72;;
26965;SDS011;14522;52.068;4.414;2023-09-07T12:43:58;3.90;;;2.58;;
26965;SDS011;14522;52.068;4.414;2023-09-07T12:46:25;7.60;;;2.88;;
26965;SDS011;14522;52.068;4.414;2023-09-07T12:48:51;3.75;;;2.10;;
26965;SDS011;14522;52.068;4.414;2023-09-07T12:51:18;3.17;;;2.10;;
26965;SDS011;14522;52.068;4.414;2023-09-07T12:53:44;3.78;;;2.30;;
26965;SDS011;14522;52.068;4.414;2023-09-07T12:56:11;5.00;;;2.47;;
26965;SDS011;14522;52.068;4.414;2023-09-07T12:58:37;4.75;;;2.47;;
26965;SDS011;14522;52.068;4.414;2023-09-07T13:01:04;3.38;;;2.30;;
26965;SDS011;14522;52.068;4.414;2023-09-07T13:03:30;3.10;;;2.35;;
26965;SDS011;14522;52.068;4.414;2023-09-07T13:05:58;5.75;;;1.85;;
26965;SDS011;14522;52.068;4.414;2023-09-07T13:08:24;7.20;;;2.50;;
26965;SDS011;14522;52.068;4.414;2023-09-07T13:10:51;5.78;;;2.10;;
26965;SDS011;14522;52.068;4.414;2023-09-07T13:13:17;5.38;;;2.75;;
26965;SDS011;14522;52.068;4.414;2023-09-07T13:15:43;5.72;;;2.33;;
26965;SDS011;14522;52.068;4.414;2023-09-07T13:18:10;8.90;;;2.05;;
26965;SDS011;14522;52.068;4.414;2023-09-07T13:20:37;3.83;;;2.17;;
26965;SDS011;14522;52.068;4.414;2023-09-07T13:23:03;4.05;;;2.00;;
26965;SDS011;14522;52.068;4.414;2023-09-07T13:25:30;7.43;;;2.67;;
26965;SDS011;14522;52.068;4.414;2023-09-07T13:27:56;8.63;;;2.83;;
26965;SDS011;14522;52.068;4.414;2023-09-07T13:30:24;3.15;;;2.38;;
26965;SDS011;14522;52.068;4.414;2023-09-07T13:32:51;4.45;;;2.30;;
26965;SDS011;14522;52.068;4.414;2023-09-07T13:35:17;4.93;;;2.35;;
26965;SDS011;14522;52.068;4.414;2023-09-07T13:37:44;5.78;;;2.40;;
26965;SDS011;14522;52.068;4.414;2023-09-07T13:40:10;4.00;;;2.30;;
26965;SDS011;14522;52.068;4.414;2023-09-07T13:42:37;5.30;;;2.80;;
26965;SDS011;14522;52.068;4.414;2023-09-07T13:45:05;6.80;;;2.65;;
26965;SDS011;14522;52.068;4.414;2023-09-07T13:47:31;4.60;;;3.20;;
26965;SDS011;14522;52.068;4.414;2023-09-07T13:49:58;8.13;;;3.22;;
26965;SDS011;14522;52.068;4.414;2023-09-07T13:52:24;4.78;;;2.80;;
26965;SDS011;14522;52.068;4.414;2023-09-07T13:54:52;6.40;;;2.70;;
26965;SDS011;14522;52.068;4.414;2023-09-07T13:57:18;6.20;;;2.35;;
26965;SDS011;14522;52.068;4.414;2023-09-07T13:59:45;7.63;;;2.97;;
26965;SDS011;14522;52.068;4.414;2023-09-07T14:02:11;5.53;;;2.58;;
26965;SDS011;14522;52.068;4.414;2023-09-07T14:04:38;5.28;;;2.67;;
26965;SDS011;14522;52.068;4.414;2023-09-07T14:07:04;3.63;;;2.35;;
26965;SDS011;14522;52.068;4.414;2023-09-07T14:09:30;5.20;;;2.45;;
26965;SDS011;14522;52.068;4.414;2023-09-07T14:11:57;7.30;;;2.58;;
26965;SDS011;14522;52.068;4.414;2023-09-07T14:14:23;9.40;;;2.45;;
26965;SDS011;14522;52.068;4.414;2023-09-07T14:16:50;6.13;;;2.40;;
26965;SDS011;14522;52.068;4.414;2023-09-07T14:19:21;3.40;;;2.58;;
26965;SDS011;14522;52.068;4.414;2023-09-07T14:21:49;4.28;;;2.75;;
26965;SDS011;14522;52.068;4.414;2023-09-07T14:24:15;4.57;;;2.63;;
26965;SDS011;14522;52.068;4.414;2023-09-07T14:26:41;6.15;;;2.85;;
26965;SDS011;14522;52.068;4.414;2023-09-07T14:29:08;6.95;;;2.38;;
26965;SDS011;14522;52.068;4.414;2023-09-07T14:31:34;3.83;;;2.50;;
26965;SDS011;14522;52.068;4.414;2023-09-07T14:34:01;4.28;;;2.60;;
26965;SDS011;14522;52.068;4.414;2023-09-07T14:36:27;6.90;;;2.95;;
26965;SDS011;14522;52.068;4.414;2023-09-07T14:38:53;6.32;;;2.58;;
26965;SDS011;14522;52.068;4.414;2023-09-07T14:41:20;4.38;;;2.75;;
26965;SDS011;14522;52.068;4.414;2023-09-07T14:43:48;3.67;;;2.13;;
26965;SDS011;14522;52.068;4.414;2023-09-07T14:46:15;5.07;;;2.30;;
26965;SDS011;14522;52.068;4.414;2023-09-07T14:48:42;4.97;;;2.50;;
26965;SDS011;14522;52.068;4.414;2023-09-07T14:51:09;5.43;;;2.25;;